»·PEaware :: N360BG KENV-KSLC

N360BG :: KENV-KSLC

FLIGHT INFORMATION

Flight Status: Arrived
Operator: Privately registered:
United States
More flights under this callsign
Pilot: Brandon G. (13)
Aircraft: BEECH AIRCRAFT A90-E90 KING AIR
(BE9L)
More flights by this aircraft type
Origin: KENV Wendover
United States
Destination: KSLC Salt Lake City Intl
United States
More flights between these airports :: More routes between these airports
Route: CEVAR V32 WEGET
File this flight plan on PilotEdge
Remarks:
Altitude:
(Current/Filed)
17,000ft
Speed:
(Current/Filed)
250kts
Departed: 14-Dec-17 10:11 AM
Arrived: 14-Dec-17 10:48 AM
Distance/Time
Traveled:
94nm/0:37
Distance/Time
To Go:
Arrived

Flight Plot

Page will automatically refresh every two minutes.

Flight plan parsing failed; only flown route is shown


Map Options




Map Legend


Flown Route
Filed Route
Departure Airport
Arrival Airport
Navaid (VOR, NDB)
Fix

Horizontal Profiles

Position Reports

Time Latitude Longitude Heading Altitude Ground
Speed
14-Dec-17 09:36 40.727749 -114.038587 179 4234ft 0kts
14-Dec-17 09:37 40.727749 -114.038587 179 4234ft 0kts
14-Dec-17 09:38 40.727749 -114.038587 179 4234ft 0kts
14-Dec-17 09:39 40.727749 -114.038587 179 4234ft 0kts
14-Dec-17 09:40 40.727749 -114.038587 179 4234ft 0kts
14-Dec-17 09:41 40.727749 -114.038587 179 4234ft 0kts
14-Dec-17 09:42 40.727749 -114.038587 179 4234ft 0kts
14-Dec-17 09:43 40.727749 -114.038587 179 4234ft 0kts
14-Dec-17 09:44 40.727749 -114.038587 179 4234ft 0kts
14-Dec-17 09:45 40.727749 -114.038587 179 4234ft 0kts
14-Dec-17 09:46 40.727749 -114.038587 179 4234ft 0kts
14-Dec-17 09:47 40.727749 -114.038587 179 4234ft 0kts
14-Dec-17 09:48 40.727749 -114.038587 179 4234ft 0kts
14-Dec-17 09:49 40.727749 -114.038587 179 4234ft 0kts
14-Dec-17 09:50 40.727749 -114.038587 179 4234ft 0kts
14-Dec-17 09:51 40.727749 -114.038587 179 4234ft 0kts
14-Dec-17 09:52 40.727749 -114.038587 179 4234ft 0kts
14-Dec-17 09:53 40.727749 -114.038587 179 4234ft 0kts
14-Dec-17 09:54 40.727749 -114.038587 179 4234ft 0kts
14-Dec-17 09:55 40.727749 -114.038587 179 4234ft 0kts
14-Dec-17 09:56 40.727749 -114.038587 179 4234ft 0kts
14-Dec-17 09:57 40.727749 -114.038587 179 4234ft 0kts
14-Dec-17 09:58 40.727749 -114.038587 179 4234ft 0kts
14-Dec-17 09:59 40.727749 -114.038587 179 4234ft 0kts
14-Dec-17 10:00 40.727749 -114.038587 179 4234ft 0kts
14-Dec-17 10:01 40.727749 -114.038587 179 4234ft 0kts
14-Dec-17 10:02 40.727749 -114.038587 179 4234ft 0kts
14-Dec-17 10:03 40.727749 -114.038587 179 4234ft 0kts
14-Dec-17 10:04 40.727749 -114.038587 179 4234ft 0kts
14-Dec-17 10:05 40.727749 -114.038587 179 4234ft 0kts
14-Dec-17 10:06 40.727749 -114.038587 179 4234ft 0kts
14-Dec-17 10:07 40.727749 -114.038587 179 4234ft 0kts
14-Dec-17 10:08 40.727749 -114.038587 179 4234ft 0kts
14-Dec-17 10:09 40.727749 -114.038587 179 4234ft 0kts
14-Dec-17 10:10 40.727749 -114.038587 179 4234ft 0kts
14-Dec-17 10:11 40.727749 -114.038587 179 4234ft 0kts
14-Dec-17 10:12 40.727748 -114.038587 179 4234ft 0kts
14-Dec-17 10:13 40.727748 -114.038587 179 4234ft 0kts
14-Dec-17 10:14 40.727748 -114.038587 179 4234ft 0kts
14-Dec-17 10:15 40.727271 -114.038581 179 4233ft 7kts
14-Dec-17 10:16 40.726769 -114.040823 279 4234ft 5kts
14-Dec-17 10:17 40.721734 -114.037091 131 4266ft 111kts
14-Dec-17 10:18 40.701674 -114.000088 101 6369ft 136kts
14-Dec-17 10:19 40.702590 -113.954745 78 8911ft 125kts
14-Dec-17 10:20 40.706313 -113.909660 76 11142ft 126kts
14-Dec-17 10:21 40.710198 -113.864430 74 13133ft 126kts
14-Dec-17 10:22 40.714122 -113.818637 72 14914ft 127kts
14-Dec-17 10:23 40.718322 -113.769865 72 16324ft 138kts
14-Dec-17 10:24 40.723036 -113.715568 73 17001ft 173kts
14-Dec-17 10:25 40.728774 -113.647558 74 16998ft 195kts
14-Dec-17 10:26 40.734832 -113.575450 74 16996ft 199kts
14-Dec-17 10:27 40.740899 -113.502953 74 16996ft 199kts
14-Dec-17 10:28 40.746955 -113.430104 74 16996ft 199kts
14-Dec-17 10:29 40.752934 -113.357623 74 16995ft 199kts
14-Dec-17 10:30 40.758783 -113.286196 75 16998ft 200kts
14-Dec-17 10:31 40.764714 -113.213171 75 16998ft 200kts
14-Dec-17 10:32 40.770582 -113.140357 75 16997ft 200kts
14-Dec-17 10:33 40.776429 -113.067217 75 16997ft 200kts
14-Dec-17 10:34 40.782224 -112.994071 75 16997ft 200kts
14-Dec-17 10:35 40.787975 -112.921005 74 16933ft 204kts
14-Dec-17 10:36 40.793634 -112.841313 76 15922ft 226kts
14-Dec-17 10:37 40.799407 -112.757760 77 14905ft 231kts
14-Dec-17 10:38 40.805213 -112.672912 78 13885ft 233kts
14-Dec-17 10:38 40.810027 -112.601911 78 13038ft 234kts
14-Dec-17 10:40 40.816737 -112.501854 79 11852ft 235kts
14-Dec-17 10:41 40.822416 -112.416014 79 11017ft 230kts
14-Dec-17 10:41 40.825394 -112.348785 101 10989ft 227kts
14-Dec-17 10:43 40.783123 -112.268422 120 11004ft 230kts
14-Dec-17 10:43 40.752102 -112.211642 120 11000ft 229kts
14-Dec-17 10:44 40.714942 -112.143923 120 10995ft 227kts
14-Dec-17 10:45 40.678082 -112.077175 123 10987ft 227kts
14-Dec-17 10:46 40.618473 -112.037546 150 10302ft 249kts
14-Dec-17 10:47 40.556044 -111.993312 146 9327ft 260kts
14-Dec-17 10:48 40.567497 -111.929039 356 8333ft 214kts
14-Dec-17 10:49 40.621682 -111.945282 358 7247ft 199kts
14-Dec-17 10:50 40.673387 -111.951404 359 6233ft 168kts
14-Dec-17 10:51 40.719076 -111.956651 358 5347ft 156kts
14-Dec-17 10:52 40.756326 -111.961886 355 4562ft 121kts
14-Dec-17 10:53 40.786357 -111.962050 12 4219ft 39kts

Navigation Log

Ident Type
Flight plan parsing failed, navigation log unavailable